createdAt,value
2023-02-23T00:00:32.660Z,3.70
2023-02-23T00:03:02.999Z,3.70
2023-02-23T00:05:36.362Z,3.70
2023-02-23T00:08:05.407Z,3.60
2023-02-23T00:10:35.383Z,3.60
2023-02-23T00:13:04.988Z,3.60
2023-02-23T00:15:33.302Z,3.60
2023-02-23T00:18:04.625Z,3.60
2023-02-23T00:20:33.215Z,3.50
2023-02-23T00:23:01.639Z,3.50
2023-02-23T00:25:31.080Z,3.50
2023-02-23T00:28:00.823Z,3.50
2023-02-23T00:30:31.756Z,3.50
2023-02-23T00:33:00.352Z,3.40
2023-02-23T00:35:29.032Z,3.40
2023-02-23T00:37:57.652Z,3.40
2023-02-23T00:40:26.481Z,3.30
2023-02-23T00:42:55.371Z,3.30
2023-02-23T00:45:25.282Z,3.30
2023-02-23T00:47:54.269Z,3.30
2023-02-23T00:50:23.279Z,3.30
2023-02-23T00:52:51.662Z,3.20
2023-02-23T00:55:20.278Z,3.20
2023-02-23T00:57:48.633Z,3.20
2023-02-23T01:00:20.699Z,3.10
2023-02-23T01:02:50.931Z,3.10
2023-02-23T01:05:20.450Z,3.10
2023-02-23T01:07:49.312Z,3.10
2023-02-23T01:10:20.890Z,3.10
2023-02-23T01:12:51.631Z,3.10
2023-02-23T01:15:22.054Z,3.10
2023-02-23T01:17:51.780Z,3.00
2023-02-23T01:20:20.238Z,3.00
2023-02-23T01:22:51.324Z,3.00
2023-02-23T01:25:20.252Z,3.00
2023-02-23T01:27:48.675Z,3.00
2023-02-23T01:30:17.738Z,2.90
2023-02-23T01:32:46.253Z,2.90
2023-02-23T01:35:16.307Z,2.90
2023-02-23T01:37:45.266Z,2.90
2023-02-23T01:40:28.808Z,2.80
2023-02-23T01:42:59.406Z,2.80
2023-02-23T01:45:31.018Z,2.80
2023-02-23T01:48:03.483Z,2.80
2023-02-23T01:50:39.823Z,2.80
2023-02-23T01:53:08.359Z,2.70
2023-02-23T01:55:36.899Z,2.80
2023-02-23T01:58:15.279Z,2.70
2023-02-23T02:00:51.382Z,2.70
2023-02-23T02:03:27.296Z,2.60
2023-02-23T02:05:57.929Z,2.60
2023-02-23T02:08:27.029Z,2.60
2023-02-23T02:10:57.559Z,2.60
2023-02-23T02:13:30.454Z,2.60
2023-02-23T02:16:37.649Z,2.60
2023-02-23T02:19:37.130Z,2.60
2023-02-23T02:22:22.019Z,2.60
2023-02-23T02:25:29.888Z,2.60
2023-02-23T02:28:22.566Z,2.50
2023-02-23T02:31:31.688Z,2.50
2023-02-23T02:34:37.000Z,2.50
2023-02-23T02:37:34.218Z,2.40
2023-02-23T02:40:19.514Z,2.40
2023-02-23T02:43:00.472Z,2.40
2023-02-23T02:45:37.351Z,2.50
2023-02-23T02:48:16.196Z,2.40
2023-02-23T02:50:50.236Z,2.40
2023-02-23T02:53:26.606Z,2.40
2023-02-23T02:55:59.875Z,2.30
2023-02-23T02:58:29.209Z,2.40
2023-02-23T03:01:18.866Z,2.40
2023-02-23T03:04:07.086Z,2.40
2023-02-23T03:06:57.240Z,2.40
2023-02-23T03:09:54.508Z,2.30
2023-02-23T03:12:50.776Z,2.30
2023-02-23T03:15:49.022Z,2.30
2023-02-23T03:18:49.236Z,2.30
2023-02-23T03:21:41.265Z,2.30
2023-02-23T03:24:37.706Z,2.30
2023-02-23T03:27:37.045Z,2.20
2023-02-23T03:30:33.121Z,2.20
2023-02-23T03:33:24.297Z,2.10
2023-02-23T03:36:16.419Z,2.10
2023-02-23T03:39:08.016Z,2.10
2023-02-23T03:41:57.250Z,2.10
2023-02-23T03:44:50.388Z,2.10
2023-02-23T03:47:41.178Z,2.10
2023-02-23T03:50:34.092Z,2.10
2023-02-23T03:53:22.603Z,2.10
2023-02-23T03:56:14.223Z,2.10
2023-02-23T03:59:05.534Z,2.10
2023-02-23T04:01:55.349Z,2.10
2023-02-23T04:04:43.333Z,2.10
2023-02-23T04:07:32.357Z,2.00
2023-02-23T04:10:18.309Z,2.00
2023-02-23T04:13:11.463Z,2.00
2023-02-23T04:15:47.225Z,2.00
2023-02-23T04:18:21.742Z,2.00
2023-02-23T04:20:50.069Z,2.00
2023-02-23T04:23:18.639Z,2.00
2023-02-23T04:25:47.774Z,2.00
2023-02-23T04:28:17.709Z,2.00
2023-02-23T04:30:46.364Z,2.00
2023-02-23T04:33:14.958Z,2.00
2023-02-23T04:35:44.904Z,2.00
2023-02-23T04:38:13.288Z,2.00
2023-02-23T04:40:41.758Z,2.00
2023-02-23T04:43:12.912Z,2.00
2023-02-23T04:45:42.020Z,2.00
2023-02-23T04:48:10.505Z,1.90
2023-02-23T04:50:40.088Z,1.90
2023-02-23T04:53:10.543Z,1.90
2023-02-23T04:55:38.994Z,2.00
2023-02-23T04:58:08.187Z,2.00
2023-02-23T05:00:39.368Z,2.00
2023-02-23T05:03:08.181Z,2.00
2023-02-23T05:05:36.920Z,2.00
2023-02-23T05:08:05.515Z,2.00
2023-02-23T05:10:35.398Z,2.00
2023-02-23T05:13:03.732Z,2.00
2023-02-23T05:15:32.315Z,2.00
2023-02-23T05:18:00.734Z,2.00
2023-02-23T05:20:29.211Z,2.00
2023-02-23T05:22:57.610Z,2.00
2023-02-23T05:25:25.912Z,2.00
2023-02-23T05:27:55.795Z,2.00
2023-02-23T05:30:24.203Z,2.10
2023-02-23T05:32:52.581Z,2.10
2023-02-23T05:35:20.935Z,2.10
2023-02-23T05:37:49.277Z,2.10
2023-02-23T05:40:18.011Z,2.10
2023-02-23T05:42:46.734Z,2.10
2023-02-23T05:45:17.208Z,2.20
2023-02-23T05:47:46.069Z,2.10
2023-02-23T05:50:14.860Z,2.20
2023-02-23T05:52:43.833Z,2.10
2023-02-23T05:55:15.146Z,2.20
2023-02-23T05:57:43.944Z,2.20
2023-02-23T06:00:14.890Z,2.20
2023-02-23T06:02:46.955Z,2.20
2023-02-23T06:05:18.278Z,2.20
2023-02-23T06:07:50.093Z,2.20
2023-02-23T06:10:19.112Z,2.20
2023-02-23T06:12:47.874Z,2.20
2023-02-23T06:15:17.285Z,2.20
2023-02-23T06:17:48.993Z,2.20
2023-02-23T06:20:20.807Z,2.20
2023-02-23T06:22:49.394Z,2.30
2023-02-23T06:25:18.404Z,2.20
2023-02-23T06:27:47.083Z,2.30
2023-02-23T06:30:17.647Z,2.20
2023-02-23T06:32:50.485Z,2.20
2023-02-23T06:35:22.331Z,2.20
2023-02-23T06:37:50.742Z,2.20
2023-02-23T06:40:20.276Z,2.30
2023-02-23T06:42:50.947Z,2.30
2023-02-23T06:50:54.781Z,2.30
2023-02-23T08:00:20.480Z,2.60
2023-02-23T08:03:27.298Z,2.60
2023-02-23T08:06:15.408Z,2.60
2023-02-23T08:09:07.912Z,2.60
2023-02-23T08:11:49.380Z,2.60
2023-02-23T08:14:41.857Z,2.60
2023-02-23T08:17:37.067Z,2.60
2023-02-23T08:42:24.247Z,3.20
2023-02-23T09:34:10.436Z,4.00
2023-02-23T09:36:39.379Z,4.10
2023-02-23T09:39:08.035Z,4.20
2023-02-23T09:42:04.723Z,4.40
2023-02-23T09:44:43.976Z,4.40
2023-02-23T09:47:29.662Z,4.50
2023-02-23T09:50:03.841Z,4.50
2023-02-23T09:52:42.042Z,4.60
2023-02-23T09:55:13.781Z,4.70
2023-02-23T09:57:46.202Z,4.80
2023-02-23T10:00:19.625Z,4.80
2023-02-23T10:03:20.597Z,4.90
2023-02-23T10:05:56.123Z,4.90
2023-02-23T10:08:38.508Z,5.00
2023-02-23T10:11:17.709Z,5.00
2023-02-23T10:13:57.738Z,5.10
2023-02-23T10:16:41.149Z,5.20
2023-02-23T10:19:20.251Z,5.20
2023-02-23T10:21:56.369Z,5.30
2023-02-23T10:24:30.072Z,5.40
2023-02-23T10:27:04.760Z,5.50
2023-02-23T10:29:37.969Z,5.60
2023-02-23T10:32:13.830Z,5.70
2023-02-23T10:34:44.096Z,5.70
2023-02-23T10:37:16.646Z,5.80
2023-02-23T10:39:45.319Z,5.90
2023-02-23T10:42:18.784Z,5.80
2023-02-23T10:44:48.284Z,5.90
2023-02-23T10:47:20.725Z,5.90
2023-02-23T10:49:51.824Z,5.90
2023-02-23T10:52:26.304Z,5.90
2023-02-23T10:54:54.995Z,5.90
2023-02-23T10:57:26.696Z,5.90
2023-02-23T11:00:28.809Z,6.00
2023-02-23T11:02:59.323Z,6.10
2023-02-23T11:05:34.632Z,6.10
2023-02-23T11:08:33.212Z,6.20
2023-02-23T11:11:25.491Z,6.20
2023-02-23T11:13:54.258Z,6.30
2023-02-23T11:16:24.374Z,6.30
2023-02-23T11:19:25.357Z,6.30
2023-02-23T11:21:54.504Z,6.40
2023-02-23T11:24:27.886Z,6.40
2023-02-23T11:27:00.625Z,6.40
2023-02-23T11:29:37.634Z,6.40
2023-02-23T11:32:10.658Z,6.40
2023-02-23T11:34:43.827Z,6.50
2023-02-23T11:37:24.000Z,6.50
2023-02-23T11:59:22.446Z,6.70
2023-02-23T12:01:59.151Z,6.70
2023-02-23T12:04:58.920Z,6.80
2023-02-23T12:07:42.844Z,6.80
2023-02-23T12:10:21.892Z,6.90
2023-02-23T12:13:03.008Z,6.90
2023-02-23T12:15:49.068Z,7.00
2023-02-23T12:18:34.338Z,7.00
2023-02-23T12:21:11.434Z,7.10
2023-02-23T12:23:44.433Z,7.20
2023-02-23T12:26:19.001Z,7.30
2023-02-23T12:28:54.275Z,7.30
2023-02-23T12:31:30.827Z,7.40
2023-02-23T12:34:04.489Z,7.50
2023-02-23T12:36:39.819Z,7.60
2023-02-23T12:39:18.782Z,7.60
2023-02-23T12:41:59.978Z,7.60
2023-02-23T12:44:38.579Z,7.60
2023-02-23T12:47:21.514Z,7.60
2023-02-23T12:49:57.609Z,7.60
2023-02-23T12:52:30.953Z,7.60
2023-02-23T12:54:59.971Z,7.60
2023-02-23T12:57:38.731Z,7.60
2023-02-23T13:00:31.445Z,7.60
2023-02-23T13:03:34.166Z,7.60
2023-02-23T13:06:12.527Z,7.60
2023-02-23T13:08:59.777Z,7.60
2023-02-23T13:11:45.819Z,7.60
2023-02-23T13:14:23.900Z,7.60
2023-02-23T13:17:05.468Z,7.60
2023-02-23T13:19:51.468Z,7.70
2023-02-23T13:22:30.322Z,7.70
2023-02-23T13:25:04.590Z,7.70
2023-02-23T13:27:38.160Z,7.80
2023-02-23T13:30:11.497Z,7.80
2023-02-23T13:32:40.830Z,7.80
2023-02-23T13:35:16.317Z,7.90
2023-02-23T13:37:49.998Z,7.80
2023-02-23T13:40:30.566Z,7.90
2023-02-23T15:57:27.680Z,7.10
2023-02-23T15:59:59.746Z,7.10
2023-02-23T16:02:28.116Z,7.10
2023-02-23T16:04:57.691Z,7.10
2023-02-23T16:07:27.677Z,7.10
2023-02-23T16:10:03.486Z,7.10
2023-02-23T16:12:39.093Z,7.10
2023-02-23T16:15:21.283Z,7.10
2023-02-23T16:17:57.762Z,7.10
2023-02-23T16:20:36.873Z,7.10
2023-02-23T16:23:06.902Z,7.10
2023-02-23T16:25:36.108Z,7.10
2023-02-23T16:28:10.585Z,7.10
2023-02-23T16:31:55.279Z,7.10
2023-02-23T16:34:28.012Z,7.10
2023-02-23T16:37:01.349Z,7.10
2023-02-23T16:39:31.494Z,7.10
2023-02-23T16:49:19.882Z,7.00
2023-02-23T16:51:48.371Z,7.00
2023-02-23T16:54:16.797Z,7.00
2023-02-23T16:57:19.325Z,7.00
2023-02-23T16:59:50.698Z,7.00
2023-02-23T17:02:22.734Z,7.00
2023-02-23T17:04:58.821Z,6.90
2023-02-23T17:07:27.274Z,6.90
2023-02-23T17:09:56.457Z,6.90
2023-02-23T17:12:24.860Z,6.90
2023-02-23T17:15:53.879Z,7.00
2023-02-23T17:33:38.425Z,7.00
2023-02-23T17:36:09.707Z,7.00
2023-02-23T17:38:38.704Z,7.00
2023-02-23T17:41:10.036Z,7.00
2023-02-23T17:43:38.872Z,7.00
2023-02-23T17:46:07.629Z,7.00
2023-02-23T17:48:37.504Z,6.90
2023-02-23T17:51:12.086Z,6.90
2023-02-23T17:53:41.462Z,6.90
2023-02-23T17:56:10.796Z,6.90
2023-02-23T17:59:07.172Z,6.90
2023-02-23T18:01:35.900Z,6.90
2023-02-23T18:04:06.023Z,6.90
2023-02-23T18:06:34.717Z,6.90
2023-02-23T18:09:05.862Z,6.90
2023-02-23T18:11:35.315Z,6.90
2023-02-23T18:14:04.086Z,6.90
2023-02-23T18:16:33.835Z,6.90
2023-02-23T18:19:02.409Z,6.90
2023-02-23T18:21:34.785Z,7.00
2023-02-23T18:24:03.376Z,7.00
2023-02-23T18:26:32.629Z,7.00
2023-02-23T18:29:05.205Z,7.00
2023-02-23T18:31:35.341Z,7.00
2023-02-23T18:38:28.099Z,7.00
2023-02-23T18:40:57.310Z,7.00
2023-02-23T18:43:34.940Z,7.00
2023-02-23T18:46:48.573Z,7.00
2023-02-23T18:49:48.245Z,7.00
2023-02-23T18:52:18.479Z,7.00
2023-02-23T22:32:57.321Z,6.90
2023-02-23T22:35:25.755Z,6.90
2023-02-23T22:37:54.117Z,6.90
2023-02-23T22:40:23.279Z,6.90
2023-02-23T22:42:51.819Z,7.00
2023-02-23T22:45:20.347Z,7.00
2023-02-23T22:47:48.734Z,7.00
2023-02-23T22:50:19.324Z,7.00
2023-02-23T22:52:48.292Z,7.00
2023-02-23T22:55:19.540Z,7.00
2023-02-23T22:57:48.761Z,7.00
2023-02-23T23:00:19.783Z,7.00
2023-02-23T23:02:48.229Z,7.00
2023-02-23T23:05:18.983Z,7.00
2023-02-23T23:07:48.008Z,7.10
2023-02-23T23:10:17.768Z,7.10
2023-02-23T23:12:46.577Z,7.10
2023-02-23T23:15:18.990Z,7.10
2023-02-23T23:17:49.251Z,7.10
2023-02-23T23:20:25.562Z,7.20
2023-02-23T23:22:57.335Z,7.20
2023-02-23T23:25:28.207Z,7.20
2023-02-23T23:27:59.959Z,7.20
2023-02-23T23:30:29.265Z,7.20
2023-02-23T23:32:58.459Z,7.20
2023-02-23T23:35:28.495Z,7.20
2023-02-23T23:37:56.983Z,7.20
2023-02-23T23:40:26.153Z,7.20
2023-02-23T23:42:55.790Z,7.30
2023-02-23T23:45:25.346Z,7.30
2023-02-23T23:47:53.848Z,7.30
2023-02-23T23:50:26.763Z,7.30
2023-02-23T23:52:57.995Z,7.30
2023-02-23T23:55:31.049Z,7.30
2023-02-23T23:58:00.616Z,7.30
